Grissom ARB Airport
KGUS : rendu visible

Aérodrome :











RETROUVEZ-NOUS SUR...

 
LOGIN :

S'inscrire | Disclaimer

   EN    FR    IT 

 









Légende :    VFR   VFR Marginal   IFR   IFR Intensif   IFR Très Intensif
Visi : 
Plafond : 
>= 8 km
>= 3000ft
5 à 8 km
1000 à 3000 ft
1500m à 5 km
500 à 1000 ft
800 à 1500m
200 à 500 ft
< 800m
< 200 ft
Symboles :   Orages  Brouillard  Fortes neiges  Fortes précipitations  Vent > 20 kt






- Altitude de l'aérodrome : 812 ft


KGUS - Grissom ARB

DERNIER METAR :
  • 042356Z 34009KT 10SM FEW014 OVC023 07/07 A3007 RMK AO2A SLP189 60000 T00690066 10103 20069 53007 $

METARs EXPIRÉS :
  • 042349Z 34009KT 10SM SCT014 OVC023 07/07 A3007 RMK AO2A SLP189 $
  • 042256Z 34008KT 10SM OVC014 08/07 A3007 RMK AO2A SLP188 T00770074 $
  • 042156Z 33009KT 10SM OVC012 08/08 A3005 RMK AO2A SLP181 P0000 T00810080 $
  • 042123Z 34009KT 10SM OVC011 08/08 A3005 RMK AO2A SLP181 $

TAF AMD TAF KGUS
Valide du 04 à 23h jusqu'au 06 à 01h UTC


042340Z 0423/0601 35009KT 8000 BR BKN012 QNH3006INS
BECMG 0503/0504 06009KT 4800 BR BKN020 QNH3008INS
BECMG 0516/0517 06006KT 9999 NSW FEW010 SCT100 QNH3012INS TX12/0519Z TN03/0507Z



MET'MAP, la Météo Aéronautique d'un coup d'oeil ! - Copyright ORBIFLY Décembre 2007 - Disclaimer

ORBIFLY MET'MAP TEAM :

Programmation & Développement : Alexandra Zaïnal
Sur une idée originale de : Baudouin d'Aumeries
Assistance à la programmation : Marc-Olivier Méhu
Soutien technique & logistique : Manuel Goepfert

Contact : metmap@orbifly.com




SOURCES & CREDITS :

   NOAA       Earth
Advisory